« 2014年12月 | トップページ | 2015年2月 »

2015年1月

2015年1月14日 (水)

台湾出張~

今度は台湾出張です~

Img_2282s

Img_2283s

Img_2284s

Img_2285s

Img_2287s

Img_2301s

Img_2307s

Img_2315s

Img_2323s

Img_2328s

Img_2335s

Img_2336s

Img_2337s

Img_2343s

Img_2368s

Img_2375s

Img_2378s

Img_2380s

Img_2391s

Img_2399s

Img_2421s

Img_2431s

Img_2435s


| | コメント (0)

2015年1月 3日 (土)

飛行はじめ~

今日は非行飛行はじめです~
でも、風の予報は強い北西風・・・・
RJAA 030341Z 29015G25KT 260V320 9999 FEW030 07/M11 Q1013 WS R34R RMK 1CU030  A2993

飛行場に行くと数人のクラブ員が既にクラブハウスで暖を取っています。
対して教官は職員のSさんのみ・・・・

Img_2122s
今年の飛行はじめはJA2351/G109Bですcat

Img_2123s
筑波山神社に初もうでと思ったけど、乱流にもてあそばれてつくば市上空からトンボ帰りしてきました・・・・だって、地上を這う土煙の壁が迫ってくるんだもんsweat01

ってわけで、久しぶりに離着陸dashで手の汗を拭きましたsign03

Img_2127s
クラブハウスに戻ると、恒例のみゆきさん特製「お雑煮」heart04
なぜか人参たっぷり

Img_2129s
飛行はじめの後は、イチゴ狩りへ~
今回は柏市のいちご園へ~

Img_2128s

帰宅後night、G★typhoonの奇襲を受けます(;ω;)

Img_2134s
G★のカラオケ

Img_2135s

sign03sign03sign03

Img_2138s

G★に襲われる生ハムちゃん(;д;)

| | コメント (1)

2015年1月 1日 (木)

謹賀新年

 

Dscn2231s

タヌの森から見た初日の出cat

皆さん、あけましておめでとうございます。今年は去年より航空廃人業務に精を出し楽しく安全に飛びましょう(笑)

2015年元旦

| | コメント (0)

« 2014年12月 | トップページ | 2015年2月 »